Terminal Aerodrome Forecast
Issued by NWS

Home | Current Version | Previous Version | Graphics & Text | Print | Product List | Glossary On
Versions: 1 2 3 4 5 6 7 8 9 10 11 12 13 14 15 16 17 18 19 20
750
FTUS43 KBIS 232211 AAA
TAFDIK
TAF AMD
KDIK 232211Z 2322/2418 08016KT P6SM OVC013
     FM240200 08016KT P6SM OVC008
     FM240600 09012G20KT P6SM VCSH OVC003
     FM241000 04008KT P6SM VCSH OVC003
     FM241700 35009KT P6SM OVC008=

USA.gov is the U.S. government's official web portal to all federal, state and local government web resources and services.